Time;durP1;ratioP1;P1;durP2;ratioP2;P2;SDS_P1;SDS_P2;PMS_P1;PMS_P2;Temp;Humidity;BMP_temperature;BMP_pressure;BME280_temperature;BME280_humidity;BME280_pressure;Samples;Min_cycle;Max_cycle;Signal;HPM_P1;HPM_P2
2021/10/15 00:00:18;;;;;;;9.37;5.70;;;12.50;99.90;;;;;;6174429;23;20153;-95
2021/10/15 00:02:43;;;;;;;13.17;5.53;;;12.50;99.90;;;;;;6150565;23;20167;-96
2021/10/15 00:05:12;;;;;;;9.80;5.60;;;12.50;99.90;;;;;;6175131;23;20140;-95
2021/10/15 00:07:38;;;;;;;10.73;4.97;;;12.50;99.90;;;;;;6148206;23;20149;-94
2021/10/15 00:10:07;;;;;;;10.73;6.03;;;12.50;99.90;;;;;;6149099;23;20160;-94
2021/10/15 00:12:35;;;;;;;10.70;5.77;;;12.50;99.90;;;;;;6148344;23;20208;-85
2021/10/15 00:15:09;;;;;;;10.27;4.97;;;12.40;99.90;;;;;;6124022;23;20144;-84
2021/10/15 00:17:37;;;;;;;8.67;4.83;;;12.30;99.90;;;;;;6158038;23;20220;-83
2021/10/15 00:20:07;;;;;;;9.20;5.33;;;12.30;99.90;;;;;;6158060;23;20134;-81
2021/10/15 00:22:59;;;;;;;11.57;5.27;;;12.40;99.90;;;;;;6157017;23;20153;-93
2021/10/15 00:25:55;;;;;;;9.10;5.40;;;12.40;99.90;;;;;;6183608;23;20145;-81
2021/10/15 00:28:27;;;;;;;11.27;5.53;;;12.40;99.90;;;;;;6159815;23;20208;-80
2021/10/15 00:30:58;;;;;;;9.07;5.27;;;12.60;99.90;;;;;;6158999;23;20154;-80
2021/10/15 00:34:04;;;;;;;15.27;5.47;;;12.60;99.90;;;;;;6184355;23;20172;-81
2021/10/15 00:36:53;;;;;;;12.93;5.30;;;12.60;99.90;;;;;;6184177;23;20146;-80
2021/10/15 00:39:19;;;;;;;10.40;5.27;;;12.50;99.90;;;;;;6159249;23;20153;-79
2021/10/15 00:41:44;;;;;;;8.20;4.70;;;12.50;99.90;;;;;;6159106;23;20149;-79
2021/10/15 00:44:13;;;;;;;11.13;5.83;;;12.50;99.90;;;;;;6159283;23;20162;-80
2021/10/15 00:46:41;;;;;;;12.67;4.83;;;12.60;99.90;;;;;;6159343;23;20132;-81
2021/10/15 00:49:11;;;;;;;18.90;5.63;;;12.70;99.90;;;;;;6159465;23;20191;-81
2021/10/15 00:51:39;;;;;;;10.20;5.67;;;12.70;99.90;;;;;;6184688;23;20209;-81
2021/10/15 00:54:05;;;;;;;11.50;5.70;;;12.60;99.90;;;;;;6159356;23;20145;-81
2021/10/15 00:56:57;;;;;;;8.17;5.60;;;12.60;99.90;;;;;;6159460;23;20153;-80
2021/10/15 00:59:23;;;;;;;10.67;5.60;;;12.60;99.90;;;;;;6159092;23;20164;-81
2021/10/15 01:01:49;;;;;;;9.30;5.50;;;12.50;99.90;;;;;;6159338;23;20137;-81
2021/10/15 01:04:21;;;;;;;14.17;5.83;;;12.50;99.90;;;;;;6159038;23;20163;-82
2021/10/15 01:06:46;;;;;;;11.73;5.83;;;12.60;99.90;;;;;;6158843;23;20145;-85
2021/10/15 01:09:25;;;;;;;11.90;5.63;;;12.70;99.90;;;;;;6159090;23;20173;-83
2021/10/15 01:11:57;;;;;;;12.27;6.10;;;12.70;99.90;;;;;;6134177;23;20273;-83
2021/10/15 01:14:38;;;;;;;11.20;5.70;;;12.70;99.90;;;;;;6184314;23;20145;-83
2021/10/15 01:17:48;;;;;;;15.03;6.63;;;12.80;99.90;;;;;;6181980;23;20145;-85
2021/10/15 01:20:23;;;;;;;11.97;5.83;;;12.90;99.90;;;;;;6159515;23;20165;-82
2021/10/15 01:23:16;;;;;;;11.37;6.07;;;12.90;99.90;;;;;;6159020;23;20152;-81
2021/10/15 01:25:41;;;;;;;10.67;5.43;;;12.90;99.90;;;;;;6158896;23;20153;-81
2021/10/15 01:28:07;;;;;;;13.43;5.77;;;12.80;99.90;;;;;;6158852;23;20189;-83
2021/10/15 01:30:33;;;;;;;10.30;5.53;;;12.90;99.90;;;;;;6158315;23;20190;-90
2021/10/15 01:33:00;;;;;;;11.67;5.90;;;12.90;99.90;;;;;;6158847;23;20185;-81
2021/10/15 01:35:25;;;;;;;11.77;5.50;;;12.80;99.90;;;;;;6158930;23;20141;-82
2021/10/15 01:37:52;;;;;;;12.20;6.27;;;12.80;99.90;;;;;;6158276;23;20201;-81
2021/10/15 01:40:18;;;;;;;17.33;6.80;;;12.90;99.90;;;;;;6183778;23;20148;-81
2021/10/15 01:42:55;;;;;;;13.13;6.20;;;12.90;99.90;;;;;;6158730;23;20150;-81
2021/10/15 01:45:48;;;;;;;9.43;5.50;;;13.00;99.90;;;;;;6159074;23;20130;-80
2021/10/15 01:48:17;;;;;;;10.60;6.00;;;12.90;99.90;;;;;;6184010;23;20121;-81
2021/10/15 01:50:46;;;;;;;8.77;5.43;;;12.90;99.90;;;;;;6159019;23;20133;-81
2021/10/15 01:53:40;;;;;;;11.97;6.43;;;12.80;99.90;;;;;;6158695;23;20199;-81
2021/10/15 01:56:09;;;;;;;12.47;6.37;;;12.80;99.90;;;;;;6158631;23;20182;-80
2021/10/15 01:58:40;;;;;;;11.37;5.97;;;12.70;99.90;;;;;;6183244;23;20141;-81
2021/10/15 02:01:10;;;;;;;10.17;6.00;;;12.70;99.90;;;;;;6183757;23;20138;-81
2021/10/15 02:03:41;;;;;;;14.97;6.70;;;12.70;99.90;;;;;;6152544;23;20138;-89
2021/10/15 02:06:07;;;;;;;11.77;5.50;;;12.70;99.90;;;;;;6157971;23;20230;-86
2021/10/15 02:08:40;;;;;;;12.33;5.50;;;12.70;99.90;;;;;;6157740;23;20148;-90
2021/10/15 02:11:13;;;;;;;12.37;5.80;;;12.70;99.90;;;;;;6158524;23;20148;-85
2021/10/15 02:13:40;;;;;;;11.73;6.23;;;12.70;99.90;;;;;;6157249;23;20161;-85
2021/10/15 02:16:05;;;;;;;12.87;6.70;;;12.70;99.90;;;;;;6158405;23;20137;-82
2021/10/15 02:18:34;;;;;;;10.13;5.73;;;12.60;99.90;;;;;;6184003;23;20149;-86
2021/10/15 02:21:03;;;;;;;11.80;5.80;;;12.70;99.90;;;;;;6158881;23;20145;-81
2021/10/15 02:23:28;;;;;;;10.07;6.20;;;12.70;99.90;;;;;;6159037;23;20185;-87
2021/10/15 02:25:54;;;;;;;11.80;5.83;;;12.70;99.90;;;;;;6158687;23;20133;-83
2021/10/15 02:28:20;;;;;;;12.03;5.70;;;12.70;99.90;;;;;;6158566;23;20181;-82
2021/10/15 02:30:48;;;;;;;12.83;6.57;;;12.80;99.90;;;;;;6158873;23;20140;-82
2021/10/15 02:33:34;;;;;;;10.20;6.33;;;12.70;99.90;;;;;;6184192;23;20221;-82
2021/10/15 02:36:00;;;;;;;12.03;6.23;;;12.60;99.90;;;;;;6158192;23;20177;-82
2021/10/15 02:38:35;;;;;;;10.27;6.50;;;12.70;99.90;;;;;;6157829;23;20165;-86
2021/10/15 02:41:00;;;;;;;12.00;6.50;;;12.70;99.90;;;;;;6156491;23;20157;-91
2021/10/15 02:43:32;;;;;;;9.67;6.20;;;12.70;99.90;;;;;;6159243;23;20929;-89
2021/10/15 02:46:30;;;;;;;11.60;6.00;;;12.70;99.90;;;;;;6185552;23;20156;-83
2021/10/15 02:48:57;;;;;;;13.63;7.17;;;12.80;99.90;;;;;;6159586;23;20193;-80
2021/10/15 02:51:29;;;;;;;11.57;6.33;;;12.70;99.90;;;;;;6160547;23;20141;-81
2021/10/15 02:53:58;;;;;;;12.27;6.20;;;12.80;99.90;;;;;;6160202;23;20168;-83
2021/10/15 02:56:24;;;;;;;12.70;6.07;;;12.80;99.90;;;;;;6185144;23;20142;-88
2021/10/15 02:58:50;;;;;;;12.60;6.47;;;12.80;99.90;;;;;;6159704;23;20152;-83
2021/10/15 03:01:15;;;;;;;13.47;6.07;;;12.80;99.90;;;;;;6159361;23;20160;-81
2021/10/15 03:03:51;;;;;;;12.23;6.93;;;12.90;99.90;;;;;;6159564;23;20214;-84
2021/10/15 03:06:56;;;;;;;13.97;6.83;;;12.90;99.90;;;;;;6159596;23;20157;-81
2021/10/15 03:10:09;;;;;;;14.07;6.80;;;12.80;99.90;;;;;;6159409;23;20141;-83
2021/10/15 03:12:46;;;;;;;11.43;6.60;;;12.90;99.90;;;;;;6184227;23;20193;-86
2021/10/15 03:15:31;;;;;;;9.83;6.10;;;12.70;99.90;;;;;;6158105;23;20130;-84
2021/10/15 03:17:58;;;;;;;12.30;6.80;;;12.70;99.90;;;;;;6160065;23;20188;-83
2021/10/15 03:20:24;;;;;;;11.90;6.40;;;12.70;99.90;;;;;;6160525;23;20154;-81
2021/10/15 03:22:58;;;;;;;12.30;5.97;;;12.70;99.90;;;;;;6159924;23;20144;-84
2021/10/15 03:25:44;;;;;;;10.30;6.50;;;12.80;99.90;;;;;;6159857;23;20157;-89
2021/10/15 03:28:10;;;;;;;12.43;6.40;;;13.00;99.90;;;;;;6157834;23;20209;-86
2021/10/15 03:30:55;;;;;;;11.33;5.80;;;13.10;99.90;;;;;;6185160;23;20117;-81
2021/10/15 03:33:36;;;;;;;13.93;7.20;;;13.00;99.90;;;;;;6158799;23;20180;-82
2021/10/15 03:36:05;;;;;;;9.60;5.77;;;13.00;99.90;;;;;;6185187;23;20149;-81
2021/10/15 03:38:36;;;;;;;10.03;6.37;;;12.80;99.90;;;;;;6185292;23;20129;-81
2021/10/15 03:41:02;;;;;;;12.73;5.90;;;12.90;99.90;;;;;;6159702;23;20130;-85
2021/10/15 03:43:31;;;;;;;12.87;7.00;;;12.90;99.90;;;;;;6158949;23;20153;-88
2021/10/15 03:46:00;;;;;;;11.43;6.87;;;12.90;99.90;;;;;;6159532;23;20157;-83
2021/10/15 03:48:43;;;;;;;12.87;6.13;;;13.00;99.90;;;;;;6159598;23;20156;-87
2021/10/15 03:51:10;;;;;;;12.87;6.50;;;12.90;99.90;;;;;;6184542;23;20171;-83
2021/10/15 03:54:02;;;;;;;12.70;6.27;;;12.90;99.90;;;;;;6159712;23;20149;-81
2021/10/15 03:56:47;;;;;;;15.17;7.27;;;12.90;99.90;;;;;;6158934;23;20157;-86
2021/10/15 03:59:15;;;;;;;11.57;6.27;;;12.80;99.90;;;;;;6156946;23;20165;-83
2021/10/15 04:01:44;;;;;;;11.80;6.97;;;12.80;99.90;;;;;;6157385;23;20153;-85
2021/10/15 04:04:13;;;;;;;13.73;6.70;;;12.80;99.90;;;;;;6156134;23;20164;-82
2021/10/15 04:06:39;;;;;;;11.73;6.80;;;12.90;99.90;;;;;;6156049;23;20226;-83
2021/10/15 04:09:05;;;;;;;14.90;6.03;;;12.90;99.90;;;;;;6154629;23;20157;-81
2021/10/15 04:11:35;;;;;;;12.57;6.63;;;12.80;99.90;;;;;;6150425;23;20177;-81
2021/10/15 04:14:04;;;;;;;11.50;6.37;;;12.90;99.90;;;;;;6151739;23;20231;-83
2021/10/15 04:16:32;;;;;;;11.17;6.73;;;12.90;99.90;;;;;;6177647;23;20149;-83
2021/10/15 04:19:03;;;;;;;14.87;7.57;;;12.90;99.90;;;;;;6155085;23;20204;-81
2021/10/15 04:21:30;;;;;;;13.93;6.53;;;12.90;99.90;;;;;;6153927;23;20161;-81
2021/10/15 04:24:16;;;;;;;9.77;6.37;;;12.90;99.90;;;;;;6155975;23;20153;-81
2021/10/15 04:27:01;;;;;;;16.00;7.10;;;12.90;99.90;;;;;;6181967;23;20200;-81
2021/10/15 04:29:32;;;;;;;9.27;5.73;;;12.90;99.90;;;;;;6156433;23;20180;-81
2021/10/15 04:32:01;;;;;;;7.97;5.90;;;12.90;99.90;;;;;;6155406;23;20195;-80
2021/10/15 04:34:27;;;;;;;13.57;6.70;;;12.80;99.90;;;;;;6156231;23;20150;-81
2021/10/15 04:36:58;;;;;;;12.60;6.60;;;12.80;99.90;;;;;;6182629;23;20118;-81
2021/10/15 04:39:24;;;;;;;12.83;6.13;;;12.80;99.90;;;;;;6155672;23;20133;-81
2021/10/15 04:41:51;;;;;;;13.23;6.93;;;12.80;99.90;;;;;;6181198;23;20125;-83
2021/10/15 04:44:43;;;;;;;9.97;6.77;;;12.90;99.90;;;;;;6155658;23;20133;-81
2021/10/15 04:47:09;;;;;;;11.60;6.70;;;12.80;99.90;;;;;;6157741;23;20224;-81
2021/10/15 04:49:37;;;;;;;10.87;6.60;;;12.90;99.90;;;;;;6158463;23;20161;-92
2021/10/15 04:52:04;;;;;;;11.17;6.07;;;12.90;99.90;;;;;;6151046;23;20203;-95
2021/10/15 04:54:30;;;;;;;11.40;6.17;;;12.90;99.90;;;;;;6132672;23;20144;-84
2021/10/15 04:56:55;;;;;;;15.27;6.07;;;12.80;99.90;;;;;;6158552;23;20154;-92
2021/10/15 04:59:21;;;;;;;15.03;6.40;;;12.90;99.90;;;;;;6158337;23;20137;-93
2021/10/15 05:01:54;;;;;;;10.97;6.53;;;13.00;99.90;;;;;;6158156;23;20173;-88
2021/10/15 05:04:20;;;;;;;11.57;6.47;;;12.90;99.90;;;;;;6127220;23;20144;-95
2021/10/15 05:06:45;;;;;;;11.37;6.77;;;12.90;99.90;;;;;;6149049;23;20192;-94
2021/10/15 05:11:48;;;;;;;9.50;6.30;;;12.90;99.90;;;;;;6188990;23;20173;-88
2021/10/15 05:14:21;;;;;;;9.67;6.43;;;13.00;99.90;;;;;;6156864;23;20157;-81
2021/10/15 05:16:52;;;;;;;14.30;7.30;;;13.00;99.90;;;;;;6155201;23;20145;-85
2021/10/15 05:19:18;;;;;;;10.37;6.57;;;13.00;99.90;;;;;;6152965;23;20157;-86
2021/10/15 05:21:44;;;;;;;15.57;6.30;;;12.90;99.90;;;;;;6179145;23;20161;-93
2021/10/15 05:24:10;;;;;;;10.00;6.67;;;12.80;99.90;;;;;;6155389;23;20149;-82
2021/10/15 05:29:19;;;;;;;12.53;6.27;;;12.70;99.90;;;;;;6191966;23;20217;-81
2021/10/15 05:31:45;;;;;;;13.47;6.73;;;12.80;99.90;;;;;;6158499;23;20204;-80
2021/10/15 05:34:13;;;;;;;11.67;6.30;;;12.80;99.90;;;;;;6184122;23;20153;-80
2021/10/15 05:36:48;;;;;;;12.33;7.03;;;12.80;99.90;;;;;;6159022;23;20205;-85
2021/10/15 05:39:36;;;;;;;15.23;6.97;;;12.90;99.90;;;;;;6180418;23;20158;-82
2021/10/15 05:42:05;;;;;;;11.10;6.10;;;12.90;99.90;;;;;;6134600;23;20156;-80
2021/10/15 05:44:31;;;;;;;12.93;7.47;;;12.90;99.90;;;;;;6157436;23;20137;-80
2021/10/15 05:47:04;;;;;;;16.53;7.07;;;12.90;99.90;;;;;;6157942;23;20145;-81
2021/10/15 05:49:39;;;;;;;12.53;7.43;;;12.90;99.90;;;;;;6156828;23;20137;-81
2021/10/15 05:52:32;;;;;;;14.27;7.00;;;12.90;99.90;;;;;;6157429;23;20176;-85
2021/10/15 05:55:10;;;;;;;13.90;6.77;;;12.90;99.90;;;;;;6155100;23;20145;-83
2021/10/15 06:00:07;;;;;;;13.27;6.97;;;12.90;99.90;;;;;;6188578;23;20157;-83
2021/10/15 06:02:56;;;;;;;14.40;7.30;;;12.90;99.90;;;;;;6179176;23;20161;-85
2021/10/15 06:16:19;;;;;;;14.67;7.67;;;13.20;99.90;;;;;;6173716;23;20593;-82
2021/10/15 06:18:53;;;;;;;12.23;7.87;;;13.20;99.90;;;;;;6138674;23;20137;-85
2021/10/15 06:21:19;;;;;;;14.40;7.20;;;13.20;99.90;;;;;;6163119;23;20134;-89
2021/10/15 06:23:45;;;;;;;14.87;7.90;;;13.20;99.90;;;;;;6133807;23;20245;-87
2021/10/15 06:26:11;;;;;;;14.77;7.77;;;13.20;99.90;;;;;;6131704;23;20200;-81
2021/10/15 06:28:38;;;;;;;13.67;7.63;;;13.10;99.90;;;;;;6140622;23;20223;-81
2021/10/15 06:31:05;;;;;;;15.03;7.87;;;13.10;99.90;;;;;;6133530;23;20448;-81
2021/10/15 06:33:31;;;;;;;13.60;8.27;;;13.10;99.90;;;;;;6133684;23;20204;-81
2021/10/15 06:35:58;;;;;;;13.13;8.03;;;13.10;99.90;;;;;;6133894;23;20546;-81
2021/10/15 06:38:24;;;;;;;14.80;7.77;;;13.10;99.90;;;;;;6159186;23;20216;-82
2021/10/15 06:40:50;;;;;;;11.90;7.97;;;13.10;99.90;;;;;;6131866;23;20492;-82
2021/10/15 06:43:15;;;;;;;14.70;8.07;;;13.00;99.90;;;;;;6131513;23;20192;-82
2021/10/15 06:45:42;;;;;;;13.57;8.17;;;13.00;99.90;;;;;;6132397;23;20239;-82
2021/10/15 06:48:08;;;;;;;12.57;8.33;;;13.00;99.90;;;;;;6132948;23;20145;-81
2021/10/15 06:50:33;;;;;;;15.03;7.87;;;13.00;99.90;;;;;;6135580;23;20157;-81
2021/10/15 06:52:59;;;;;;;15.57;8.40;;;13.10;99.90;;;;;;6134898;23;20185;-81
2021/10/15 06:55:25;;;;;;;14.23;8.60;;;13.00;99.90;;;;;;6136321;23;20152;-83
2021/10/15 06:57:51;;;;;;;14.63;8.03;;;13.00;99.90;;;;;;6133532;23;20502;-81
2021/10/15 07:00:18;;;;;;;20.43;8.30;;;13.00;99.90;;;;;;6137815;23;20145;-81
2021/10/15 07:02:46;;;;;;;14.67;8.30;;;13.10;99.90;;;;;;6136310;23;20532;-80
2021/10/15 07:05:14;;;;;;;14.00;8.30;;;13.10;99.90;;;;;;6165090;23;20535;-81
2021/10/15 07:07:40;;;;;;;16.50;7.93;;;13.10;99.90;;;;;;6114888;23;20229;-81
2021/10/15 07:10:06;;;;;;;11.80;8.07;;;13.00;99.90;;;;;;6125319;23;20154;-90
2021/10/15 07:12:41;;;;;;;15.17;7.90;;;13.10;99.90;;;;;;6157464;23;20177;-89
2021/10/15 07:15:08;;;;;;;14.50;8.30;;;13.10;99.90;;;;;;6130984;23;20163;-89
2021/10/15 07:17:34;;;;;;;17.43;8.90;;;13.00;99.90;;;;;;6131109;23;20576;-92
2021/10/15 07:20:00;;;;;;;14.73;8.33;;;13.10;99.90;;;;;;6131760;23;20188;-90
2021/10/15 07:22:25;;;;;;;18.13;9.00;;;13.10;99.90;;;;;;6131209;23;20168;-89
2021/10/15 07:24:52;;;;;;;16.73;9.13;;;13.10;99.90;;;;;;6130657;23;20149;-90
2021/10/15 07:27:18;;;;;;;19.27;9.43;;;13.10;99.90;;;;;;6130575;23;20174;-88
2021/10/15 07:29:44;;;;;;;15.53;8.53;;;13.10;99.90;;;;;;6131070;23;20528;-87
2021/10/15 07:32:10;;;;;;;13.27;8.87;;;13.10;99.90;;;;;;6131255;23;20181;-87
2021/10/15 07:34:35;;;;;;;15.43;8.03;;;13.10;99.90;;;;;;6131534;23;20150;-88
2021/10/15 07:37:01;;;;;;;15.67;9.17;;;13.10;99.90;;;;;;6131578;23;20652;-88
2021/10/15 07:39:26;;;;;;;16.27;8.17;;;13.10;99.90;;;;;;6131107;23;20521;-90
2021/10/15 07:41:52;;;;;;;20.73;9.57;;;13.20;99.90;;;;;;6130853;23;20582;-91
2021/10/15 07:44:18;;;;;;;18.07;9.30;;;13.30;99.90;;;;;;6130559;23;20264;-90
2021/10/15 07:46:44;;;;;;;17.73;9.40;;;13.30;99.90;;;;;;6130967;23;20146;-92
2021/10/15 07:49:10;;;;;;;14.00;8.70;;;13.40;99.90;;;;;;6130864;23;20217;-91
2021/10/15 07:51:36;;;;;;;13.90;8.90;;;13.40;99.90;;;;;;6131076;23;20268;-91
2021/10/15 07:54:03;;;;;;;18.27;9.33;;;13.50;99.90;;;;;;6131437;23;20563;-92
2021/10/15 07:56:32;;;;;;;20.53;10.17;;;13.50;99.90;;;;;;6131262;23;20149;-91
2021/10/15 07:58:58;;;;;;;20.37;11.23;;;13.50;99.90;;;;;;6131330;23;20195;-89
2021/10/15 08:01:24;;;;;;;19.50;10.47;;;13.60;99.90;;;;;;6130938;23;20584;-90
2021/10/15 08:03:49;;;;;;;13.20;8.30;;;13.70;99.90;;;;;;6132189;23;20209;-90
2021/10/15 08:06:15;;;;;;;24.30;11.63;;;13.70;99.90;;;;;;6130719;23;20152;-92
2021/10/15 08:08:41;;;;;;;13.53;8.50;;;13.80;99.90;;;;;;6128286;23;20153;-91
2021/10/15 08:11:09;;;;;;;14.53;8.47;;;13.80;99.90;;;;;;6131078;23;20150;-92
2021/10/15 08:13:35;;;;;;;25.50;10.37;;;13.90;99.90;;;;;;6136249;23;20184;-92
2021/10/15 08:16:01;;;;;;;19.07;8.93;;;13.90;99.90;;;;;;6139849;23;20172;-90
2021/10/15 08:18:27;;;;;;;18.77;9.23;;;13.90;99.90;;;;;;6140363;23;20205;-90
2021/10/15 08:20:57;;;;;;;14.80;8.80;;;13.80;99.90;;;;;;6139122;23;20154;-90
2021/10/15 08:23:29;;;;;;;26.60;14.23;;;13.90;99.90;;;;;;6139652;23;20170;-90
2021/10/15 08:25:55;;;;;;;16.23;8.67;;;13.90;99.90;;;;;;6139520;23;20153;-92
2021/10/15 08:28:22;;;;;;;16.80;8.90;;;14.00;99.90;;;;;;6139230;23;20591;-89
2021/10/15 08:30:50;;;;;;;14.33;9.27;;;13.90;99.90;;;;;;6138179;23;20535;-86
2021/10/15 08:33:20;;;;;;;19.33;9.40;;;13.90;99.90;;;;;;6137702;23;20280;-89
2021/10/15 08:35:46;;;;;;;16.93;9.30;;;13.80;99.90;;;;;;6138663;23;20200;-87
2021/10/15 08:38:14;;;;;;;15.77;9.07;;;13.90;99.90;;;;;;6138711;23;20153;-87
2021/10/15 08:40:41;;;;;;;15.50;8.97;;;14.00;99.90;;;;;;6165843;23;20170;-88
2021/10/15 08:43:06;;;;;;;20.63;9.67;;;14.20;99.90;;;;;;6140584;23;20146;-87
2021/10/15 08:45:36;;;;;;;15.80;8.93;;;14.30;99.90;;;;;;6140095;23;20153;-87
2021/10/15 08:48:03;;;;;;;20.87;9.57;;;14.30;99.90;;;;;;6141377;23;20153;-87
2021/10/15 08:50:31;;;;;;;14.47;8.43;;;14.40;99.90;;;;;;6139279;23;20244;-87
2021/10/15 08:52:57;;;;;;;15.53;8.63;;;14.50;99.90;;;;;;6138535;23;20189;-88
2021/10/15 08:55:23;;;;;;;19.00;9.90;;;14.40;99.90;;;;;;6140202;23;20178;-88
2021/10/15 08:57:58;;;;;;;16.07;8.73;;;14.40;99.90;;;;;;6138783;23;20162;-87
2021/10/15 09:00:27;;;;;;;14.47;8.90;;;14.40;99.90;;;;;;6140108;23;20169;-86
2021/10/15 09:03:17;;;;;;;14.30;9.33;;;14.40;99.90;;;;;;6137652;23;20157;-90
2021/10/15 09:05:53;;;;;;;16.47;9.30;;;14.30;99.90;;;;;;6138720;23;20524;-87
2021/10/15 09:08:20;;;;;;;20.20;9.43;;;14.20;99.90;;;;;;6138668;23;20145;-86
2021/10/15 09:10:46;;;;;;;18.77;9.57;;;14.10;99.90;;;;;;6138951;23;20157;-88
2021/10/15 09:13:17;;;;;;;17.63;9.37;;;14.10;99.90;;;;;;6138657;23;20243;-87
2021/10/15 09:15:45;;;;;;;17.13;9.00;;;14.20;99.90;;;;;;6140089;23;20173;-88
2021/10/15 09:18:32;;;;;;;16.23;8.70;;;14.20;99.90;;;;;;6139980;23;20156;-91
2021/10/15 09:20:58;;;;;;;18.90;9.87;;;14.10;99.90;;;;;;6139834;23;20495;-88
2021/10/15 09:23:48;;;;;;;18.33;9.90;;;14.10;99.90;;;;;;6139710;23;20161;-90
2021/10/15 09:26:16;;;;;;;17.53;9.53;;;14.20;99.90;;;;;;6139895;23;20687;-88
2021/10/15 09:28:47;;;;;;;15.17;9.83;;;14.40;99.90;;;;;;6138463;23;20186;-86
2021/10/15 09:31:14;;;;;;;16.60;9.57;;;14.50;99.90;;;;;;6137721;23;20594;-89
2021/10/15 09:33:59;;;;;;;20.50;9.53;;;14.70;99.90;;;;;;6126205;23;20185;-88
2021/10/15 09:36:25;;;;;;;13.37;8.40;;;14.70;99.90;;;;;;6138361;23;20150;-88
2021/10/15 09:38:55;;;;;;;16.27;9.40;;;14.80;99.90;;;;;;6140388;23;20181;-88
2021/10/15 09:41:40;;;;;;;17.10;8.97;;;15.00;99.90;;;;;;6140930;23;20158;-88
2021/10/15 09:44:31;;;;;;;15.43;9.20;;;15.00;99.90;;;;;;6143478;23;20166;-90
2021/10/15 09:47:28;;;;;;;19.00;8.50;;;15.10;99.90;;;;;;6141157;23;20190;-90
2021/10/15 09:49:55;;;;;;;16.20;8.83;;;15.10;99.90;;;;;;6118640;23;20161;-93
2021/10/15 09:52:50;;;;;;;14.63;9.30;;;15.00;99.90;;;;;;6150630;23;20202;-90
2021/10/15 09:55:31;;;;;;;17.90;9.10;;;14.70;99.90;;;;;;6150621;23;20161;-89
2021/10/15 09:58:08;;;;;;;16.97;10.17;;;14.60;99.90;;;;;;6144172;23;20155;-90
2021/10/15 10:00:35;;;;;;;25.07;12.00;;;14.30;99.90;;;;;;6142385;23;20248;-89
2021/10/15 10:03:01;;;;;;;21.60;11.40;;;14.10;99.90;;;;;;6141805;23;20145;-89
2021/10/15 10:05:28;;;;;;;18.73;12.27;;;14.10;99.90;;;;;;6141981;23;20157;-89
2021/10/15 10:07:55;;;;;;;20.00;12.70;;;14.10;99.90;;;;;;6141023;23;20146;-88
2021/10/15 10:10:24;;;;;;;20.07;11.90;;;14.10;99.90;;;;;;6139457;23;20179;-89
2021/10/15 10:12:51;;;;;;;20.57;12.37;;;14.20;99.90;;;;;;6116519;23;20208;-89
2021/10/15 10:15:22;;;;;;;19.60;12.73;;;14.10;99.90;;;;;;6140848;23;20147;-89
2021/10/15 10:18:10;;;;;;;23.60;13.07;;;14.10;99.90;;;;;;6143884;23;20153;-90
2021/10/15 10:20:39;;;;;;;19.00;12.73;;;14.20;99.90;;;;;;6142921;23;20579;-89
2021/10/15 10:23:10;;;;;;;16.60;11.53;;;14.20;99.90;;;;;;6143303;23;20153;-89
2021/10/15 10:25:36;;;;;;;18.63;12.63;;;14.20;99.90;;;;;;6142629;23;20164;-90
2021/10/15 10:28:19;;;;;;;19.50;13.33;;;14.30;99.90;;;;;;6141865;23;20168;-89
2021/10/15 10:30:49;;;;;;;14.33;11.97;;;14.40;99.90;;;;;;6141364;23;20158;-90
2021/10/15 10:33:15;;;;;;;19.07;12.40;;;14.50;99.90;;;;;;6141607;23;20194;-91
2021/10/15 10:35:43;;;;;;;15.53;12.40;;;14.60;99.90;;;;;;6140474;23;20152;-89
2021/10/15 10:38:21;;;;;;;13.97;9.53;;;14.60;99.90;;;;;;6140685;23;20158;-90
2021/10/15 10:41:06;;;;;;;10.20;6.43;;;14.70;99.90;;;;;;6140409;23;20464;-90
2021/10/15 10:43:56;;;;;;;8.07;4.00;;;14.70;99.90;;;;;;6140091;23;20162;-91
2021/10/15 10:46:24;;;;;;;8.27;3.40;;;14.70;99.90;;;;;;6140178;23;20158;-89
2021/10/15 10:48:50;;;;;;;7.63;3.00;;;14.60;99.90;;;;;;6140598;23;20168;-89
2021/10/15 10:51:24;;;;;;;6.23;2.83;;;14.60;99.90;;;;;;6139922;23;20209;-89
2021/10/15 10:54:03;;;;;;;5.87;2.80;;;14.70;99.90;;;;;;6166670;23;20151;-90
2021/10/15 10:56:49;;;;;;;10.43;3.50;;;14.80;99.90;;;;;;6140216;23;20160;-89
2021/10/15 10:59:18;;;;;;;8.73;2.60;;;15.00;99.90;;;;;;6139426;23;20226;-88
2021/10/15 11:01:52;;;;;;;5.40;3.03;;;15.20;99.90;;;;;;6139957;23;20176;-89
2021/10/15 11:04:42;;;;;;;5.37;2.30;;;15.30;99.90;;;;;;6139626;23;20173;-89
2021/10/15 11:07:07;;;;;;;9.00;2.37;;;15.50;99.90;;;;;;6140943;23;20212;-90
2021/10/15 11:09:47;;;;;;;7.87;2.70;;;15.50;99.90;;;;;;6140736;23;20183;-89
2021/10/15 11:12:22;;;;;;;7.50;1.63;;;15.50;99.90;;;;;;6142262;23;20199;-88
2021/10/15 11:15:27;;;;;;;5.73;1.90;;;15.50;99.90;;;;;;6141006;23;20162;-88
2021/10/15 11:17:55;;;;;;;5.20;1.83;;;15.60;99.90;;;;;;6025365;23;20156;-89
2021/10/15 11:20:29;;;;;;;4.10;2.00;;;15.50;99.90;;;;;;6025969;23;20164;-88
2021/10/15 11:23:00;;;;;;;5.77;1.20;;;15.40;99.90;;;;;;6066270;23;20162;-89
2021/10/15 11:25:39;;;;;;;7.33;1.63;;;15.40;99.90;;;;;;6142038;23;20166;-88
2021/10/15 11:28:11;;;;;;;3.83;1.63;;;15.50;99.90;;;;;;6141685;23;20183;-88
2021/10/15 11:30:39;;;;;;;4.57;1.53;;;15.50;99.90;;;;;;6139090;23;20162;-88
2021/10/15 11:33:11;;;;;;;4.27;1.30;;;15.60;99.90;;;;;;6140156;23;20464;-88
2021/10/15 11:35:39;;;;;;;8.07;1.50;;;15.70;99.90;;;;;;6140638;23;20153;-89
2021/10/15 11:38:08;;;;;;;3.73;1.70;;;15.80;99.90;;;;;;6139328;23;20154;-89
2021/10/15 11:40:36;;;;;;;7.27;1.70;;;15.90;99.90;;;;;;6138250;23;20153;-88
2021/10/15 11:43:12;;;;;;;6.27;1.77;;;15.80;99.90;;;;;;6140789;23;20160;-89
2021/10/15 11:45:50;;;;;;;9.17;1.80;;;15.90;99.90;;;;;;6139855;23;20568;-89
2021/10/15 11:48:28;;;;;;;8.20;1.63;;;16.10;99.90;;;;;;6140501;23;20145;-89
2021/10/15 11:50:57;;;;;;;9.73;1.60;;;16.20;99.90;;;;;;6139463;23;20179;-88
2021/10/15 11:53:26;;;;;;;5.40;1.20;;;16.40;99.90;;;;;;6139813;23;20640;-89
2021/10/15 11:55:53;;;;;;;4.10;0.80;;;16.60;99.90;;;;;;6140257;23;20148;-88
2021/10/15 11:58:38;;;;;;;4.17;0.80;;;16.80;99.90;;;;;;6135481;23;20248;-88
2021/10/15 12:01:22;;;;;;;3.50;1.03;;;17.00;99.90;;;;;;6140572;23;20550;-88
2021/10/15 12:03:55;;;;;;;4.30;1.00;;;17.20;99.90;;;;;;6140233;23;20161;-88
2021/10/15 12:06:30;;;;;;;3.47;0.90;;;17.70;99.90;;;;;;6134993;23;20177;-88
2021/10/15 12:09:06;;;;;;;8.17;1.73;;;18.10;99.90;;;;;;6132698;23;20160;-88
2021/10/15 12:11:37;;;;;;;4.10;0.70;;;18.70;99.90;;;;;;6128498;23;20154;-88
2021/10/15 12:14:05;;;;;;;6.60;1.23;;;18.80;99.90;;;;;;6130029;23;20168;-90
2021/10/15 12:16:46;;;;;;;4.37;0.90;;;18.90;99.90;;;;;;6132732;23;20494;-90
2021/10/15 12:19:21;;;;;;;3.07;1.00;;;18.70;99.90;;;;;;6134387;23;20196;-90
2021/10/15 12:22:11;;;;;;;3.57;1.20;;;18.40;99.90;;;;;;6133196;23;20682;-89
2021/10/15 12:24:40;;;;;;;3.50;0.87;;;18.10;99.90;;;;;;6130564;23;20160;-91
2021/10/15 12:27:15;;;;;;;5.37;1.17;;;18.20;99.90;;;;;;6131225;23;20170;-92
2021/10/15 12:29:46;;;;;;;3.33;0.93;;;18.10;99.90;;;;;;6133423;23;20180;-89
2021/10/15 12:32:22;;;;;;;3.57;1.07;;;18.10;99.90;;;;;;6132978;23;20192;-89
2021/10/15 12:35:08;;;;;;;5.17;1.10;;;18.10;99.90;;;;;;6132467;23;20574;-89
2021/10/15 12:37:40;;;;;;;5.17;1.20;;;18.30;99.90;;;;;;6131088;23;20157;-89
2021/10/15 12:40:22;;;;;;;5.90;1.30;;;18.70;99.90;;;;;;6133283;23;20165;-89
2021/10/15 12:43:01;;;;;;;6.47;0.93;;;18.90;99.90;;;;;;6131393;23;20155;-91
2021/10/15 12:45:38;;;;;;;3.30;1.17;;;19.20;99.90;;;;;;6130567;23;20167;-92
2021/10/15 12:48:07;;;;;;;7.80;1.47;;;19.10;99.90;;;;;;6131757;23;20246;-94
2021/10/15 12:50:43;;;;;;;5.63;1.60;;;18.90;99.90;;;;;;6131516;23;20147;-93
2021/10/15 12:53:19;;;;;;;3.57;1.37;;;19.10;99.90;;;;;;6131049;23;20181;-92
2021/10/15 12:55:58;;;;;;;9.57;1.43;;;19.30;99.90;;;;;;6131108;23;20226;-92
2021/10/15 12:58:26;;;;;;;4.40;1.20;;;19.30;99.90;;;;;;6130184;23;20157;-94
2021/10/15 13:00:56;;;;;;;4.70;1.10;;;19.30;99.90;;;;;;6130405;23;20149;-93
2021/10/15 13:03:22;;;;;;;5.83;1.17;;;19.30;99.90;;;;;;6131199;23;20154;-94
2021/10/15 13:05:49;;;;;;;4.30;1.00;;;19.20;99.90;;;;;;6130879;23;20154;-92
2021/10/15 13:08:16;;;;;;;3.00;0.97;;;19.60;99.90;;;;;;6131471;23;20159;-93
2021/10/15 13:10:42;;;;;;;8.43;1.97;;;20.20;99.90;;;;;;6130942;23;20573;-93
2021/10/15 13:13:09;;;;;;;5.23;1.27;;;20.50;99.90;;;;;;6130757;23;20192;-94
2021/10/15 13:15:35;;;;;;;6.80;1.20;;;21.00;99.90;;;;;;6131141;23;20163;-90
2021/10/15 13:18:02;;;;;;;9.30;1.60;;;21.30;99.30;;;;;;6131283;23;20164;-93
2021/10/15 13:20:28;;;;;;;6.30;1.80;;;21.50;99.00;;;;;;6132121;23;20458;-93